Time;durP1;ratioP1;P1;durP2;ratioP2;P2;SDS_P1;SDS_P2;PMS_P1;PMS_P2;Temp;Humidity;BMP_temperature;BMP_pressure;BME280_temperature;BME280_humidity;BME280_pressure;Samples;Min_cycle;Max_cycle;Signal;HPM_P1;HPM_P2
2022/04/18 00:01:00;;;;;;;124.40;44.05;;;;;;;;;;6181121;28;20471;-60
2022/04/18 00:04:01;;;;;;;143.07;47.28;;;;;;;;;;6184180;28;20452;-60
2022/04/18 00:07:02;;;;;;;132.18;48.45;;;;;;;;;;6185325;28;20056;-60
2022/04/18 00:10:04;;;;;;;132.77;46.92;;;;;;;;;;6183059;28;20445;-59
2022/04/18 00:13:05;;;;;;;150.87;48.47;;;;;;;;;;6183564;28;20073;-60
2022/04/18 00:16:05;;;;;;;128.93;47.92;;;;;;;;;;6187111;28;20050;-60
2022/04/18 00:19:06;;;;;;;146.48;48.47;;;;;;;;;;6186151;28;20039;-60
2022/04/18 00:22:07;;;;;;;139.73;49.72;;;;;;;;;;6188062;28;20410;-60
2022/04/18 00:25:07;;;;;;;128.35;46.58;;;;;;;;;;6192331;28;20138;-60
2022/04/18 00:28:08;;;;;;;129.45;43.63;;;;;;;;;;6189253;28;20093;-60
2022/04/18 00:31:09;;;;;;;120.55;42.47;;;;;;;;;;6187213;28;20465;-60
2022/04/18 00:34:10;;;;;;;138.18;47.53;;;;;;;;;;6182482;28;20047;-60
2022/04/18 00:37:10;;;;;;;123.85;42.83;;;;;;;;;;6181252;28;20053;-60
2022/04/18 00:40:12;;;;;;;129.95;42.22;;;;;;;;;;6191457;28;20126;-60
2022/04/18 00:43:13;;;;;;;130.00;43.37;;;;;;;;;;6189431;28;20381;-60
2022/04/18 00:46:16;;;;;;;132.02;46.67;;;;;;;;;;6182642;28;20050;-61
2022/04/18 00:49:17;;;;;;;122.82;44.78;;;;;;;;;;6172289;28;20050;-60
2022/04/18 00:52:18;;;;;;;126.82;44.88;;;;;;;;;;6190519;28;20054;-60
2022/04/18 00:55:20;;;;;;;138.23;46.83;;;;;;;;;;6179950;28;20501;-60
2022/04/18 00:58:20;;;;;;;119.43;41.95;;;;;;;;;;6183598;28;20062;-60
2022/04/18 01:01:22;;;;;;;126.30;44.83;;;;;;;;;;6182167;28;20133;-60
2022/04/18 01:04:23;;;;;;;126.25;43.60;;;;;;;;;;6182420;28;20091;-60
2022/04/18 01:07:24;;;;;;;137.50;47.00;;;;;;;;;;6178466;28;20398;-59
2022/04/18 01:10:24;;;;;;;134.02;46.95;;;;;;;;;;6183603;28;20093;-60
2022/04/18 01:13:27;;;;;;;142.10;49.88;;;;;;;;;;6179982;28;20194;-60
2022/04/18 01:16:29;;;;;;;151.07;51.88;;;;;;;;;;6178485;28;20356;-60
2022/04/18 01:19:29;;;;;;;126.47;44.72;;;;;;;;;;6187411;28;20046;-60
2022/04/18 01:22:30;;;;;;;131.50;45.22;;;;;;;;;;6184103;28;20046;-60
2022/04/18 01:29:00;;;;;;;123.13;41.80;;;;;;;;;;6180727;28;20133;-60
2022/04/18 01:32:01;;;;;;;122.93;40.47;;;;;;;;;;6189569;28;20050;-59
2022/04/18 01:35:02;;;;;;;120.80;42.30;;;;;;;;;;6186728;28;20073;-60
2022/04/18 01:38:02;;;;;;;126.22;43.80;;;;;;;;;;6178271;28;20118;-60
2022/04/18 01:41:03;;;;;;;125.70;42.08;;;;;;;;;;6181216;28;20045;-58
2022/04/18 01:44:04;;;;;;;126.75;45.60;;;;;;;;;;6180879;28;20082;-59
2022/04/18 01:47:05;;;;;;;133.15;45.40;;;;;;;;;;6181313;28;20063;-60
2022/04/18 01:50:06;;;;;;;135.73;46.50;;;;;;;;;;6175177;28;20047;-59
2022/04/18 01:53:07;;;;;;;132.57;47.28;;;;;;;;;;6187634;28;20069;-60
2022/04/18 01:56:07;;;;;;;135.65;46.92;;;;;;;;;;6179416;28;20042;-59
2022/04/18 01:59:08;;;;;;;129.40;45.42;;;;;;;;;;6176829;28;20055;-59
2022/04/18 02:02:09;;;;;;;128.43;44.05;;;;;;;;;;6180089;28;20060;-59
2022/04/18 02:05:09;;;;;;;130.15;44.33;;;;;;;;;;6183702;28;20439;-60
2022/04/18 02:08:10;;;;;;;137.32;46.70;;;;;;;;;;6183536;28;20093;-60
2022/04/18 02:11:11;;;;;;;123.15;44.13;;;;;;;;;;6186676;28;20470;-60
2022/04/18 02:14:12;;;;;;;136.27;44.75;;;;;;;;;;6174012;28;20134;-59
2022/04/18 02:17:13;;;;;;;128.70;44.40;;;;;;;;;;6186981;28;20077;-60
2022/04/18 02:20:13;;;;;;;122.32;42.88;;;;;;;;;;6181899;28;20145;-59
2022/04/18 02:23:14;;;;;;;120.80;42.90;;;;;;;;;;6180171;28;20047;-60
2022/04/18 02:26:14;;;;;;;124.47;41.63;;;;;;;;;;6178865;28;20050;-60
2022/04/18 02:29:15;;;;;;;126.97;45.10;;;;;;;;;;6178246;28;20137;-56
2022/04/18 02:35:35;;;;;;;115.95;40.47;;;;;;;;;;6179463;28;20054;-59
2022/04/18 02:38:35;;;;;;;118.00;41.08;;;;;;;;;;6176899;28;20142;-60
2022/04/18 02:41:36;;;;;;;116.80;39.03;;;;;;;;;;6178210;28;20101;-58
2022/04/18 02:44:36;;;;;;;104.70;38.92;;;;;;;;;;6178513;28;20042;-60
2022/04/18 02:47:37;;;;;;;109.18;38.65;;;;;;;;;;6192501;28;20042;-60
2022/04/18 02:50:37;;;;;;;116.25;39.63;;;;;;;;;;6179282;28;20101;-59
2022/04/18 02:53:38;;;;;;;118.55;42.20;;;;;;;;;;6181649;28;20504;-59
2022/04/18 02:56:39;;;;;;;110.03;39.22;;;;;;;;;;6184140;28;20050;-60
2022/04/18 02:59:40;;;;;;;128.15;42.85;;;;;;;;;;6183555;28;20058;-59
2022/04/18 03:02:40;;;;;;;117.85;41.63;;;;;;;;;;6175792;28;20125;-59
2022/04/18 03:05:41;;;;;;;125.70;42.88;;;;;;;;;;6183783;28;20143;-60
2022/04/18 03:08:41;;;;;;;119.25;40.17;;;;;;;;;;6180158;28;20133;-59
2022/04/18 03:11:42;;;;;;;124.82;41.45;;;;;;;;;;6182050;28;20612;-60
2022/04/18 03:14:43;;;;;;;116.28;42.45;;;;;;;;;;6180382;28;20502;-60
2022/04/18 03:17:44;;;;;;;128.15;45.45;;;;;;;;;;6178641;28;20046;-59
2022/04/18 03:20:45;;;;;;;149.85;55.58;;;;;;;;;;6181742;28;20049;-60
2022/04/18 03:23:46;;;;;;;142.30;50.40;;;;;;;;;;6186168;28;20053;-59
2022/04/18 03:26:46;;;;;;;139.98;50.97;;;;;;;;;;6186606;28;20148;-59
2022/04/18 03:29:48;;;;;;;156.15;54.70;;;;;;;;;;6178035;28;20050;-59
2022/04/18 03:32:48;;;;;;;146.23;52.00;;;;;;;;;;6194866;28;20050;-59
2022/04/18 03:42:29;;;;;;;143.50;51.65;;;;;;;;;;6178756;28;20469;-60
2022/04/18 03:45:30;;;;;;;;;;;;;;;;;;6180216;28;20058;-60
2022/04/18 03:48:30;;;;;;;135.23;48.22;;;;;;;;;;6184696;28;19933;-59
2022/04/18 03:51:31;;;;;;;147.68;50.05;;;;;;;;;;6178343;28;20053;-60
2022/04/18 03:54:32;;;;;;;178.63;56.13;;;;;;;;;;6182758;28;20111;-59
2022/04/18 03:57:32;;;;;;;180.32;57.25;;;;;;;;;;6184570;28;20145;-59
2022/04/18 04:00:34;;;;;;;209.25;65.80;;;;;;;;;;6182879;28;20057;-60
2022/04/18 04:03:35;;;;;;;175.75;62.95;;;;;;;;;;6184018;28;20047;-59
2022/04/18 04:06:36;;;;;;;180.38;59.22;;;;;;;;;;6186128;28;20049;-60
2022/04/18 04:09:37;;;;;;;155.57;53.53;;;;;;;;;;6184035;28;20557;-60
2022/04/18 04:12:37;;;;;;;170.32;55.28;;;;;;;;;;6185887;28;20436;-60
2022/04/18 04:15:39;;;;;;;173.45;57.30;;;;;;;;;;6186632;28;20601;-60
2022/04/18 04:18:39;;;;;;;193.60;63.08;;;;;;;;;;6189124;28;20069;-59
2022/04/18 04:21:40;;;;;;;168.07;56.45;;;;;;;;;;6185481;28;20158;-59
2022/04/18 04:24:40;;;;;;;169.50;56.55;;;;;;;;;;6188580;28;20042;-60
2022/04/18 04:27:41;;;;;;;170.10;57.28;;;;;;;;;;6188271;28;20520;-59
2022/04/18 04:30:42;;;;;;;162.38;56.30;;;;;;;;;;6182467;28;20047;-60
2022/04/18 04:33:42;;;;;;;171.18;63.38;;;;;;;;;;6188771;28;20054;-59
2022/04/18 04:36:43;;;;;;;171.82;63.90;;;;;;;;;;6190229;28;20114;-59
2022/04/18 04:39:43;;;;;;;189.48;64.15;;;;;;;;;;6186174;28;20169;-60
2022/04/18 04:42:44;;;;;;;173.40;57.40;;;;;;;;;;6189671;28;20054;-60
2022/04/18 04:45:44;;;;;;;170.38;62.88;;;;;;;;;;6185662;28;20062;-60
2022/04/18 04:48:45;;;;;;;151.68;54.65;;;;;;;;;;6186618;28;20046;-60
2022/04/18 04:51:46;;;;;;;144.07;51.08;;;;;;;;;;6180982;28;20052;-59
2022/04/18 04:54:46;;;;;;;144.95;52.15;;;;;;;;;;6183280;28;20050;-59
2022/04/18 04:57:47;;;;;;;148.68;54.60;;;;;;;;;;6179842;28;20138;-60
2022/04/18 05:00:48;;;;;;;146.48;52.25;;;;;;;;;;6185557;28;21225;-59
2022/04/18 05:03:49;;;;;;;143.80;51.35;;;;;;;;;;6184651;28;20125;-59
2022/04/18 05:06:50;;;;;;;140.32;50.42;;;;;;;;;;6179679;28;20094;-59
2022/04/18 05:09:50;;;;;;;149.57;51.58;;;;;;;;;;6183480;28;20096;-59
2022/04/18 05:12:51;;;;;;;152.10;56.03;;;;;;;;;;6189360;28;20050;-60
2022/04/18 05:15:51;;;;;;;164.85;65.05;;;;;;;;;;6186496;28;20125;-59
2022/04/18 05:18:52;;;;;;;152.70;57.45;;;;;;;;;;6182655;28;20058;-59
2022/04/18 05:21:53;;;;;;;152.57;56.35;;;;;;;;;;6186492;28;20081;-59
2022/04/18 05:24:55;;;;;;;151.68;55.00;;;;;;;;;;6183031;28;20073;-60
2022/04/18 05:27:55;;;;;;;151.07;54.40;;;;;;;;;;6187687;28;20055;-59
2022/04/18 05:30:57;;;;;;;141.15;51.58;;;;;;;;;;6181454;28;20089;-59
2022/04/18 05:33:57;;;;;;;141.23;52.00;;;;;;;;;;6190929;28;20054;-60
2022/04/18 05:36:58;;;;;;;152.18;56.72;;;;;;;;;;6183705;28;20061;-60
2022/04/18 05:39:59;;;;;;;151.07;54.03;;;;;;;;;;6187225;28;20141;-60
2022/04/18 05:43:03;;;;;;;152.38;56.83;;;;;;;;;;6181687;28;20034;-60
2022/04/18 05:46:03;;;;;;;164.82;64.70;;;;;;;;;;6189859;28;20054;-60
2022/04/18 05:49:04;;;;;;;210.68;78.15;;;;;;;;;;6184932;28;20494;-60
2022/04/18 05:52:05;;;;;;;229.38;81.15;;;;;;;;;;6188427;28;20145;-59
2022/04/18 05:55:06;;;;;;;241.40;84.07;;;;;;;;;;6189458;28;20050;-59
2022/04/18 05:58:07;;;;;;;220.85;81.38;;;;;;;;;;6178260;28;20058;-59
2022/04/18 06:01:08;;;;;;;196.38;72.43;;;;;;;;;;6178435;28;20477;-59
2022/04/18 06:04:08;;;;;;;184.75;68.78;;;;;;;;;;6190238;28;20077;-59
2022/04/18 06:07:09;;;;;;;179.43;65.38;;;;;;;;;;6190459;28;20066;-59
2022/04/18 06:10:09;;;;;;;174.65;64.82;;;;;;;;;;6178860;28;20137;-59
2022/04/18 06:13:10;;;;;;;164.10;62.05;;;;;;;;;;6188758;28;20549;-60
2022/04/18 06:16:11;;;;;;;166.35;59.92;;;;;;;;;;6185248;28;20044;-60
2022/04/18 06:19:11;;;;;;;153.20;56.85;;;;;;;;;;6190124;28;20042;-62
2022/04/18 06:22:12;;;;;;;147.23;54.67;;;;;;;;;;6194297;28;20469;-63
2022/04/18 06:25:12;;;;;;;157.68;59.20;;;;;;;;;;6192398;28;20050;-62
2022/04/18 06:28:13;;;;;;;160.40;57.42;;;;;;;;;;6192376;28;20572;-62
2022/04/18 06:31:14;;;;;;;112.78;39.45;;;;;;;;;;6190694;28;20053;-61
2022/04/18 06:34:14;;;;;;;123.97;43.35;;;;;;;;;;6194127;28;20133;-60
2022/04/18 06:37:15;;;;;;;114.15;40.80;;;;;;;;;;6190250;28;20054;-59
2022/04/18 06:40:15;;;;;;;117.95;41.67;;;;;;;;;;6187945;28;20078;-58
2022/04/18 06:43:16;;;;;;;121.07;42.85;;;;;;;;;;6191308;28;20133;-58
2022/04/18 06:46:16;;;;;;;114.30;42.50;;;;;;;;;;6185718;28;20153;-59
2022/04/18 06:49:17;;;;;;;118.53;43.85;;;;;;;;;;6188539;28;20057;-57
2022/04/18 06:52:18;;;;;;;119.95;40.45;;;;;;;;;;6189287;28;20061;-62
2022/04/18 06:55:18;;;;;;;108.60;39.85;;;;;;;;;;6185582;28;20104;-59
2022/04/18 06:58:19;;;;;;;103.80;38.00;;;;;;;;;;6190377;28;20045;-59
2022/04/18 07:01:19;;;;;;;111.93;39.85;;;;;;;;;;6187316;28;20061;-59
2022/04/18 07:04:20;;;;;;;99.72;36.42;;;;;;;;;;6186008;28;20482;-60
2022/04/18 07:07:21;;;;;;;92.20;35.53;;;;;;;;;;6186059;28;20120;-59
2022/04/18 07:10:21;;;;;;;96.70;37.40;;;;;;;;;;6187597;28;20561;-59
2022/04/18 07:13:22;;;;;;;100.80;38.45;;;;;;;;;;6179236;28;20571;-60
2022/04/18 07:16:23;;;;;;;103.90;38.15;;;;;;;;;;6188317;28;20042;-59
2022/04/18 07:19:23;;;;;;;106.35;39.00;;;;;;;;;;6181402;28;20050;-58
2022/04/18 07:22:24;;;;;;;102.57;37.92;;;;;;;;;;6190713;28;20065;-59
2022/04/18 07:25:25;;;;;;;95.45;34.33;;;;;;;;;;6187333;28;20124;-59
2022/04/18 07:28:25;;;;;;;94.00;36.65;;;;;;;;;;6186104;28;20131;-58
2022/04/18 07:31:26;;;;;;;86.38;34.88;;;;;;;;;;6188135;28;20094;-59
2022/04/18 07:34:28;;;;;;;86.43;33.47;;;;;;;;;;6187951;28;20129;-60
2022/04/18 07:37:28;;;;;;;97.95;37.22;;;;;;;;;;6188833;28;20058;-59
2022/04/18 07:40:29;;;;;;;84.65;29.60;;;;;;;;;;6184068;28;20093;-59
2022/04/18 07:43:32;;;;;;;78.95;30.70;;;;;;;;;;6184470;28;20081;-60
2022/04/18 07:46:32;;;;;;;60.45;23.17;;;;;;;;;;6182134;28;20477;-61
2022/04/18 07:49:33;;;;;;;57.50;22.13;;;;;;;;;;6177357;28;20042;-59
2022/04/18 07:52:33;;;;;;;47.90;20.17;;;;;;;;;;6195132;28;20046;-57
2022/04/18 07:55:34;;;;;;;53.30;20.27;;;;;;;;;;6196639;28;20097;-58
2022/04/18 07:58:35;;;;;;;49.33;21.90;;;;;;;;;;6190842;28;20058;-59
2022/04/18 08:01:36;;;;;;;47.37;20.63;;;;;;;;;;6189010;28;20182;-56
2022/04/18 08:04:39;;;;;;;45.35;20.58;;;;;;;;;;6193294;28;20493;-60
2022/04/18 08:07:39;;;;;;;48.42;19.65;;;;;;;;;;6189474;28;20057;-60
2022/04/18 08:10:40;;;;;;;31.75;12.55;;;;;;;;;;6195803;28;20077;-59
2022/04/18 08:13:45;;;;;;;21.73;8.45;;;;;;;;;;6180276;28;20046;-59
2022/04/18 08:16:45;;;;;;;17.55;7.88;;;;;;;;;;6195917;28;20093;-59
2022/04/18 08:19:46;;;;;;;16.63;6.95;;;;;;;;;;6186567;28;20055;-59
2022/04/18 08:22:46;;;;;;;16.80;7.60;;;;;;;;;;6173623;28;20129;-59
2022/04/18 08:25:47;;;;;;;24.15;8.55;;;;;;;;;;6192816;28;20505;-59
2022/04/18 08:28:47;;;;;;;21.38;8.38;;;;;;;;;;6176817;28;20788;-58
2022/04/18 08:34:54;;;;;;;23.40;10.27;;;;;;;;;;6262284;28;20061;-60
2022/04/18 08:37:55;;;;;;;20.65;9.45;;;;;;;;;;6269776;28;20098;-58
2022/04/18 08:40:58;;;;;;;24.95;9.65;;;;;;;;;;6269454;28;20128;-59
2022/04/18 08:43:59;;;;;;;25.17;10.85;;;;;;;;;;6268532;28;20079;-59
2022/04/18 08:47:00;;;;;;;26.80;9.80;;;;;;;;;;6268440;28;20067;-59
2022/04/18 08:53:26;;;;;;;10.43;5.00;;;;;;;;;;6267769;28;20048;-58
2022/04/18 08:56:27;;;;;;;12.13;6.05;;;;;;;;;;6269581;28;20045;-58
2022/04/18 08:59:27;;;;;;;13.30;5.15;;;;;;;;;;6265387;28;20068;-56
2022/04/18 09:02:28;;;;;;;15.30;7.00;;;;;;;;;;6265787;28;20083;-58
2022/04/18 09:05:35;;;;;;;14.13;7.07;;;;;;;;;;6267317;28;20143;-59
2022/04/18 09:08:52;;;;;;;17.17;6.75;;;;;;;;;;6266881;28;20056;-60
2022/04/18 09:11:53;;;;;;;13.15;6.65;;;;;;;;;;6266857;28;20049;-59
2022/04/18 09:14:54;;;;;;;14.40;6.95;;;;;;;;;;6263684;28;20087;-60
2022/04/18 09:18:09;;;;;;;14.90;7.25;;;;;;;;;;6266416;28;20061;-60
2022/04/18 09:21:10;;;;;;;17.15;7.03;;;;;;;;;;6265407;28;20056;-60
2022/04/18 09:24:37;;;;;;;15.98;7.57;;;;;;;;;;6271747;28;20057;-60
2022/04/18 09:27:37;;;;;;;18.48;7.60;;;;;;;;;;6260142;28;20476;-61
2022/04/18 09:30:38;;;;;;;13.27;6.50;;;;;;;;;;6265793;28;20076;-59
2022/04/18 09:33:46;;;;;;;15.40;7.03;;;;;;;;;;6265254;28;20465;-60
2022/04/18 09:36:46;;;;;;;12.82;6.00;;;;;;;;;;6264480;28;20761;-61
2022/04/18 09:39:51;;;;;;;13.80;7.03;;;;;;;;;;6267832;28;20053;-59
2022/04/18 09:42:55;;;;;;;13.70;5.60;;;;;;;;;;6264724;28;20052;-59
2022/04/18 09:45:57;;;;;;;15.15;7.10;;;;;;;;;;6260181;28;20103;-60
2022/04/18 09:49:03;;;;;;;14.77;6.63;;;;;;;;;;6263869;28;20055;-60
2022/04/18 09:52:16;;;;;;;12.45;5.82;;;;;;;;;;6264124;28;20060;-59
2022/04/18 09:55:17;;;;;;;16.55;6.18;;;;;;;;;;6262087;28;20491;-61
2022/04/18 09:58:17;;;;;;;13.05;6.68;;;;;;;;;;6261736;28;20052;-60
2022/04/18 10:01:18;;;;;;;9.90;5.03;;;;;;;;;;6263427;28;20160;-61
2022/04/18 10:04:20;;;;;;;11.52;5.85;;;;;;;;;;6263857;28;20412;-60
2022/04/18 10:07:20;;;;;;;12.73;5.53;;;;;;;;;;6263524;28;20148;-61
2022/04/18 10:10:21;;;;;;;24.50;7.80;;;;;;;;;;6264047;28;20483;-60
2022/04/18 10:13:22;;;;;;;15.82;6.07;;;;;;;;;;6262650;28;20132;-59
2022/04/18 10:16:23;;;;;;;13.43;5.80;;;;;;;;;;6263525;28;20075;-60
2022/04/18 10:19:44;;;;;;;14.90;6.30;;;;;;;;;;6261624;28;20044;-60
2022/04/18 10:23:13;;;;;;;12.48;6.30;;;;;;;;;;6262914;28;20151;-59
2022/04/18 10:26:45;;;;;;;13.98;6.32;;;;;;;;;;6260637;28;20056;-60
2022/04/18 10:29:50;;;;;;;13.57;6.18;;;;;;;;;;6259262;28;20087;-61
2022/04/18 10:32:52;;;;;;;14.77;5.97;;;;;;;;;;6254183;28;20127;-61
2022/04/18 10:36:04;;;;;;;15.43;6.63;;;;;;;;;;6264425;28;20044;-60
2022/04/18 10:39:06;;;;;;;13.07;5.95;;;;;;;;;;6263760;28;20045;-60
2022/04/18 10:42:21;;;;;;;;;;;;;;;;;;6265448;28;20045;-60
2022/04/18 10:45:24;;;;;;;18.95;6.72;;;;;;;;;;6264792;28;19927;-60
2022/04/18 10:48:34;;;;;;;12.68;5.30;;;;;;;;;;6263204;28;20076;-60
2022/04/18 10:51:37;;;;;;;12.43;6.03;;;;;;;;;;6262527;28;20037;-60
2022/04/18 10:54:38;;;;;;;16.90;6.10;;;;;;;;;;6262966;28;20087;-61
2022/04/18 10:57:39;;;;;;;13.45;6.47;;;;;;;;;;6262968;28;20470;-60
2022/04/18 11:00:56;;;;;;;15.15;7.68;;;;;;;;;;6262069;28;20049;-61
2022/04/18 11:03:58;;;;;;;14.05;6.88;;;;;;;;;;6260614;28;20060;-61
2022/04/18 11:07:01;;;;;;;19.80;7.78;;;;;;;;;;6261491;28;20076;-60
2022/04/18 11:10:02;;;;;;;17.00;7.78;;;;;;;;;;6264065;28;20106;-60
2022/04/18 11:13:03;;;;;;;18.15;7.72;;;;;;;;;;6262710;28;20072;-60
2022/04/18 11:16:24;;;;;;;15.48;8.57;;;;;;;;;;6260122;28;20049;-60
2022/04/18 11:19:27;;;;;;;17.55;7.78;;;;;;;;;;6262299;28;20048;-60
2022/04/18 11:22:28;;;;;;;20.40;9.50;;;;;;;;;;6261596;28;20480;-60
2022/04/18 11:25:48;;;;;;;16.98;9.07;;;;;;;;;;6262129;28;20127;-60
2022/04/18 11:28:52;;;;;;;22.52;8.00;;;;;;;;;;6266211;28;20079;-60
2022/04/18 11:31:52;;;;;;;18.58;8.80;;;;;;;;;;6268119;28;20553;-60
2022/04/18 11:34:55;;;;;;;20.63;9.15;;;;;;;;;;6268475;28;20048;-60
2022/04/18 11:37:56;;;;;;;16.83;8.50;;;;;;;;;;6268230;28;20052;-59
2022/04/18 11:40:57;;;;;;;18.17;8.93;;;;;;;;;;6269679;28;20171;-60
2022/04/18 11:43:58;;;;;;;17.00;8.20;;;;;;;;;;6270183;28;20052;-59
2022/04/18 11:47:06;;;;;;;20.10;8.85;;;;;;;;;;6266387;28;20507;-59
2022/04/18 11:50:08;;;;;;;18.00;9.20;;;;;;;;;;6266355;28;20090;-59
2022/04/18 11:53:11;;;;;;;17.83;8.73;;;;;;;;;;6267099;28;20045;-60
2022/04/18 11:56:12;;;;;;;19.27;9.15;;;;;;;;;;6267504;28;20099;-59
2022/04/18 11:59:12;;;;;;;17.35;8.25;;;;;;;;;;6266646;28;20045;-60
2022/04/18 12:08:52;;;;;;;17.90;9.00;;;;;;;;;;6267392;28;20493;-60
2022/04/18 12:11:52;;;;;;;23.02;11.43;;;;;;;;;;6266040;28;20072;-60
2022/04/18 12:14:54;;;;;;;15.68;8.07;;;;;;;;;;6268699;28;20055;-61
2022/04/18 12:17:56;;;;;;;15.45;7.47;;;;;;;;;;6255484;28;20148;-59
2022/04/18 12:20:57;;;;;;;;;;;;;;;;;;6255419;28;20610;-59
2022/04/18 12:23:59;;;;;;;18.10;8.50;;;;;;;;;;6253260;28;19935;-60
2022/04/18 12:27:00;;;;;;;;;;;;;;;;;;6257040;28;20144;-58
2022/04/18 12:30:00;;;;;;;19.30;8.95;;;;;;;;;;6256086;28;19935;-62
2022/04/18 12:33:11;;;;;;;17.63;8.38;;;;;;;;;;6258933;28;20053;-59
2022/04/18 12:36:29;;;;;;;17.85;9.38;;;;;;;;;;6258599;28;20053;-59
2022/04/18 12:39:29;;;;;;;23.42;10.98;;;;;;;;;;6257050;28;20080;-62
2022/04/18 12:42:30;;;;;;;22.02;9.25;;;;;;;;;;6257926;28;20053;-60
2022/04/18 12:45:42;;;;;;;15.80;9.25;;;;;;;;;;6258951;28;20198;-59
2022/04/18 12:48:49;;;;;;;21.90;10.30;;;;;;;;;;6259211;28;20129;-59
2022/04/18 12:51:51;;;;;;;18.13;9.65;;;;;;;;;;6257109;28;20340;-60
2022/04/18 12:54:51;;;;;;;18.33;8.70;;;;;;;;;;6241459;28;20057;-60
2022/04/18 12:57:52;;;;;;;16.52;8.48;;;;;;;;;;6257848;28;20131;-59
2022/04/18 13:00:53;;;;;;;15.43;7.85;;;;;;;;;;6259512;28;20110;-60
2022/04/18 13:03:55;;;;;;;16.27;7.60;;;;;;;;;;6257165;28;20052;-61
2022/04/18 13:06:58;;;;;;;13.93;7.67;;;;;;;;;;6257593;28;20190;-59
2022/04/18 13:10:03;;;;;;;16.85;7.93;;;;;;;;;;6259656;28;20399;-60
2022/04/18 13:13:05;;;;;;;18.65;7.78;;;;;;;;;;6256581;28;20075;-58
2022/04/18 13:16:22;;;;;;;19.42;8.85;;;;;;;;;;6259805;28;20051;-59
2022/04/18 13:19:23;;;;;;;15.82;7.80;;;;;;;;;;6256542;28;20049;-59
2022/04/18 13:22:24;;;;;;;20.27;8.52;;;;;;;;;;6257932;28;20056;-59
2022/04/18 13:25:25;;;;;;;17.70;8.38;;;;;;;;;;6258015;28;20145;-58
2022/04/18 13:28:25;;;;;;;21.50;10.38;;;;;;;;;;6257656;28;20053;-60
2022/04/18 13:31:27;;;;;;;14.43;7.53;;;;;;;;;;6259669;28;20067;-59
2022/04/18 13:34:27;;;;;;;14.33;7.00;;;;;;;;;;6257624;28;20522;-59
2022/04/18 13:37:29;;;;;;;12.05;6.57;;;;;;;;;;6258894;28;20114;-59
2022/04/18 13:40:30;;;;;;;14.93;7.75;;;;;;;;;;6260641;28;20059;-59
2022/04/18 13:43:32;;;;;;;15.82;7.32;;;;;;;;;;6258583;28;20053;-60
2022/04/18 13:46:35;;;;;;;14.85;7.32;;;;;;;;;;6258721;28;20094;-60
2022/04/18 13:49:37;;;;;;;17.38;8.20;;;;;;;;;;6256704;28;20045;-59
2022/04/18 13:52:38;;;;;;;16.27;8.27;;;;;;;;;;6256400;28;20072;-59
2022/04/18 13:55:39;;;;;;;15.68;7.70;;;;;;;;;;6255154;28;20074;-59
2022/04/18 13:58:40;;;;;;;21.38;10.40;;;;;;;;;;6256853;28;20068;-60
2022/04/18 14:01:43;;;;;;;17.30;8.32;;;;;;;;;;6257063;28;20182;-59
2022/04/18 14:04:43;;;;;;;17.33;7.90;;;;;;;;;;6257758;28;20057;-60
2022/04/18 14:07:44;;;;;;;13.43;7.15;;;;;;;;;;6257422;28;20415;-60
2022/04/18 14:10:45;;;;;;;16.17;7.28;;;;;;;;;;6257918;28;20384;-60
2022/04/18 14:13:46;;;;;;;15.50;6.95;;;;;;;;;;6255636;28;20387;-61
2022/04/18 14:20:21;;;;;;;19.60;8.05;;;;;;;;;;6259071;28;20052;-59
2022/04/18 14:23:22;;;;;;;20.83;7.97;;;;;;;;;;6260335;28;20075;-59
2022/04/18 14:26:25;;;;;;;14.95;7.07;;;;;;;;;;6257156;28;20682;-58
2022/04/18 14:29:26;;;;;;;20.25;8.73;;;;;;;;;;6257777;28;20068;-59
2022/04/18 14:32:27;;;;;;;19.45;9.43;;;;;;;;;;6258977;28;20148;-59
2022/04/18 14:35:27;;;;;;;15.75;7.95;;;;;;;;;;6257711;28;20102;-60
2022/04/18 14:38:28;;;;;;;17.50;9.25;;;;;;;;;;6256976;28;20151;-60
2022/04/18 14:41:29;;;;;;;15.68;7.93;;;;;;;;;;6258795;28;20578;-60
2022/04/18 14:44:30;;;;;;;25.00;9.50;;;;;;;;;;6258569;28;20053;-60
2022/04/18 14:47:31;;;;;;;20.75;9.60;;;;;;;;;;6256013;28;20049;-60
2022/04/18 14:50:31;;;;;;;19.77;8.10;;;;;;;;;;6257982;28;20686;-59
2022/04/18 14:53:32;;;;;;;21.63;10.60;;;;;;;;;;6258672;28;20048;-60
2022/04/18 14:56:33;;;;;;;20.45;10.07;;;;;;;;;;6255571;28;20195;-59
2022/04/18 14:59:34;;;;;;;16.13;8.90;;;;;;;;;;6258117;28;20115;-59
2022/04/18 15:02:34;;;;;;;18.17;9.30;;;;;;;;;;6257530;28;20468;-59
2022/04/18 15:05:35;;;;;;;17.40;7.60;;;;;;;;;;6256651;28;20044;-60
2022/04/18 15:08:36;;;;;;;16.52;7.70;;;;;;;;;;6257116;28;20139;-60
2022/04/18 15:11:36;;;;;;;19.80;8.38;;;;;;;;;;6256971;28;20044;-60
2022/04/18 15:14:37;;;;;;;15.45;7.65;;;;;;;;;;6258115;28;20051;-60
2022/04/18 15:17:38;;;;;;;16.55;7.68;;;;;;;;;;6255617;28;20092;-60
2022/04/18 15:20:39;;;;;;;20.13;8.13;;;;;;;;;;6256577;28;20053;-60
2022/04/18 15:23:40;;;;;;;19.65;7.97;;;;;;;;;;6258165;28;20510;-60
2022/04/18 15:26:41;;;;;;;15.55;8.20;;;;;;;;;;6253981;28;20052;-60
2022/04/18 15:29:41;;;;;;;17.10;8.90;;;;;;;;;;6258535;28;20049;-59
2022/04/18 15:32:42;;;;;;;17.38;8.25;;;;;;;;;;6255642;28;20513;-60
2022/04/18 15:35:43;;;;;;;15.57;8.15;;;;;;;;;;6255584;28;20647;-60
2022/04/18 15:38:43;;;;;;;25.65;8.68;;;;;;;;;;6256682;28;20055;-61
2022/04/18 15:41:44;;;;;;;17.98;8.70;;;;;;;;;;6258683;28;20408;-60
2022/04/18 15:44:44;;;;;;;16.20;7.72;;;;;;;;;;6257019;28;20411;-59
2022/04/18 15:47:45;;;;;;;19.30;8.73;;;;;;;;;;6256141;28;20049;-59
2022/04/18 15:50:46;;;;;;;14.82;7.53;;;;;;;;;;6257804;28;20041;-60
2022/04/18 15:53:46;;;;;;;18.88;7.88;;;;;;;;;;6256677;28;20052;-59
2022/04/18 15:56:48;;;;;;;23.80;9.40;;;;;;;;;;6254505;28;20072;-60
2022/04/18 15:59:48;;;;;;;20.93;8.90;;;;;;;;;;6258449;28;20491;-60
2022/04/18 16:02:49;;;;;;;27.08;9.95;;;;;;;;;;6257598;28;20081;-59
2022/04/18 16:05:50;;;;;;;29.45;10.50;;;;;;;;;;6255892;28;20110;-59
2022/04/18 16:08:50;;;;;;;23.98;9.60;;;;;;;;;;6255608;28;20557;-59
2022/04/18 16:11:52;;;;;;;20.10;9.10;;;;;;;;;;6256710;28;20061;-59
2022/04/18 16:14:52;;;;;;;21.65;8.43;;;;;;;;;;6260039;28;20928;-60
2022/04/18 16:17:53;;;;;;;16.73;7.88;;;;;;;;;;6259645;28;20110;-61
2022/04/18 16:20:53;;;;;;;20.42;8.70;;;;;;;;;;6262279;28;20090;-59
2022/04/18 16:23:56;;;;;;;18.10;7.97;;;;;;;;;;6261363;28;20049;-60
2022/04/18 16:26:56;;;;;;;20.25;8.73;;;;;;;;;;6258517;28;20061;-60
2022/04/18 16:33:16;;;;;;;443.65;83.93;;;;;;;;;;6260533;28;20049;-60
2022/04/18 16:36:17;;;;;;;88.63;20.30;;;;;;;;;;6260402;28;20935;-60
2022/04/18 16:39:18;;;;;;;134.70;35.70;;;;;;;;;;6259817;28;20529;-60
2022/04/18 16:45:48;;;;;;;25.20;11.00;;;;;;;;;;6259068;28;20052;-58
2022/04/18 16:48:49;;;;;;;25.17;11.10;;;;;;;;;;6224318;28;20183;-59
2022/04/18 16:51:49;;;;;;;24.23;11.30;;;;;;;;;;6258753;28;20068;-58
2022/04/18 16:54:50;;;;;;;29.95;13.38;;;;;;;;;;6259369;28;20498;-59
2022/04/18 16:57:51;;;;;;;27.08;11.82;;;;;;;;;;6255767;28;20053;-59
2022/04/18 17:00:51;;;;;;;40.90;15.35;;;;;;;;;;6239801;28;20049;-59
2022/04/18 17:03:53;;;;;;;44.72;17.20;;;;;;;;;;6253828;28;20100;-58
2022/04/18 17:06:54;;;;;;;45.73;16.30;;;;;;;;;;6254682;28;20183;-59
2022/04/18 17:09:54;;;;;;;43.83;14.35;;;;;;;;;;6256364;28;20115;-60
2022/04/18 17:12:55;;;;;;;50.28;15.93;;;;;;;;;;6255554;28;20057;-60
2022/04/18 17:15:56;;;;;;;57.95;18.33;;;;;;;;;;6255360;28;20086;-59
2022/04/18 17:18:57;;;;;;;78.78;24.42;;;;;;;;;;6253597;28;20061;-59
2022/04/18 17:21:58;;;;;;;126.90;33.10;;;;;;;;;;6255332;28;20095;-60
2022/04/18 17:24:59;;;;;;;120.05;33.28;;;;;;;;;;6257237;28;20134;-60
2022/04/18 17:27:59;;;;;;;81.90;23.83;;;;;;;;;;6252946;28;20647;-59
2022/04/18 17:31:00;;;;;;;40.47;15.30;;;;;;;;;;6256143;28;20424;-60
2022/04/18 17:34:00;;;;;;;45.03;15.85;;;;;;;;;;6255146;28;20813;-60
2022/04/18 17:37:01;;;;;;;72.22;19.55;;;;;;;;;;6252046;28;20060;-60
2022/04/18 17:40:02;;;;;;;44.70;15.90;;;;;;;;;;6255425;28;20049;-59
2022/04/18 17:43:03;;;;;;;56.97;17.38;;;;;;;;;;6250986;28;20059;-59
2022/04/18 17:46:04;;;;;;;40.05;14.40;;;;;;;;;;6254135;28;20048;-61
2022/04/18 17:49:04;;;;;;;46.95;16.95;;;;;;;;;;6254158;28;20056;-62
2022/04/18 17:52:05;;;;;;;43.90;15.50;;;;;;;;;;6253640;28;20041;-61
2022/04/18 17:58:27;;;;;;;41.03;15.13;;;;;;;;;;6254953;28;20156;-60
2022/04/18 18:01:28;;;;;;;31.25;13.93;;;;;;;;;;6255217;28;20053;-60
2022/04/18 18:04:28;;;;;;;95.95;23.88;;;;;;;;;;6254573;28;20048;-60
2022/04/18 18:07:30;;;;;;;71.88;21.95;;;;;;;;;;6253319;28;20530;-60
2022/04/18 18:10:31;;;;;;;88.57;24.80;;;;;;;;;;6256052;28;20064;-60
2022/04/18 18:13:33;;;;;;;78.93;21.30;;;;;;;;;;6258342;28;20605;-60
2022/04/18 18:16:34;;;;;;;97.17;24.23;;;;;;;;;;6252121;28;20136;-62
2022/04/18 18:19:35;;;;;;;96.45;28.13;;;;;;;;;;6252216;28;20068;-60